sensor_id;sensor_type;location;lat;lon;timestamp;temperature;humidity
23685;DHT22;12020;51.384;6.908;2022-12-18T00:01:34;-3.10;99.90
23685;DHT22;12020;51.384;6.908;2022-12-18T00:04:03;-3.10;99.90
23685;DHT22;12020;51.384;6.908;2022-12-18T00:06:29;-3.10;99.90
23685;DHT22;12020;51.384;6.908;2022-12-18T00:08:57;-3.00;99.90
23685;DHT22;12020;51.384;6.908;2022-12-18T00:11:28;-3.00;99.90
23685;DHT22;12020;51.384;6.908;2022-12-18T00:13:57;-3.00;99.90
23685;DHT22;12020;51.384;6.908;2022-12-18T00:16:26;-2.90;99.90
23685;DHT22;12020;51.384;6.908;2022-12-18T00:19:06;-2.90;99.90
23685;DHT22;12020;51.384;6.908;2022-12-18T00:21:37;-2.80;99.90
23685;DHT22;12020;51.384;6.908;2022-12-18T00:24:04;-2.80;99.90
23685;DHT22;12020;51.384;6.908;2022-12-18T00:26:34;-2.80;99.90
23685;DHT22;12020;51.384;6.908;2022-12-18T00:29:06;-2.70;99.90
23685;DHT22;12020;51.384;6.908;2022-12-18T00:31:37;-2.70;99.90
23685;DHT22;12020;51.384;6.908;2022-12-18T00:34:03;-2.70;99.90
23685;DHT22;12020;51.384;6.908;2022-12-18T00:36:33;-2.70;99.90
23685;DHT22;12020;51.384;6.908;2022-12-18T00:39:01;-2.70;99.90
23685;DHT22;12020;51.384;6.908;2022-12-18T00:41:28;-2.80;99.90
23685;DHT22;12020;51.384;6.908;2022-12-18T00:44:17;-2.80;99.90
23685;DHT22;12020;51.384;6.908;2022-12-18T00:46:44;-2.80;99.90
23685;DHT22;12020;51.384;6.908;2022-12-18T00:49:14;-2.80;99.90
23685;DHT22;12020;51.384;6.908;2022-12-18T00:51:40;-2.80;99.90
23685;DHT22;12020;51.384;6.908;2022-12-18T00:54:07;-2.80;99.90
23685;DHT22;12020;51.384;6.908;2022-12-18T00:56:35;-2.80;99.90
23685;DHT22;12020;51.384;6.908;2022-12-18T00:59:04;-2.80;99.90
23685;DHT22;12020;51.384;6.908;2022-12-18T01:01:31;-2.80;99.90
23685;DHT22;12020;51.384;6.908;2022-12-18T01:04:03;-2.80;99.90
23685;DHT22;12020;51.384;6.908;2022-12-18T01:06:34;-2.80;99.90
23685;DHT22;12020;51.384;6.908;2022-12-18T01:09:04;-2.90;99.90
23685;DHT22;12020;51.384;6.908;2022-12-18T01:11:35;-2.80;99.90
23685;DHT22;12020;51.384;6.908;2022-12-18T01:14:01;-2.80;99.90
23685;DHT22;12020;51.384;6.908;2022-12-18T01:16:30;-2.80;99.90
23685;DHT22;12020;51.384;6.908;2022-12-18T01:18:57;-2.80;99.90
23685;DHT22;12020;51.384;6.908;2022-12-18T01:21:25;-2.90;99.90
23685;DHT22;12020;51.384;6.908;2022-12-18T01:23:54;-2.90;99.90
23685;DHT22;12020;51.384;6.908;2022-12-18T01:26:23;-2.90;99.90
23685;DHT22;12020;51.384;6.908;2022-12-18T01:29:02;-2.80;99.90
23685;DHT22;12020;51.384;6.908;2022-12-18T01:31:32;-2.80;99.90
23685;DHT22;12020;51.384;6.908;2022-12-18T01:34:04;-2.80;99.90
23685;DHT22;12020;51.384;6.908;2022-12-18T01:36:35;-2.70;99.90
23685;DHT22;12020;51.384;6.908;2022-12-18T01:39:15;-2.70;99.90
23685;DHT22;12020;51.384;6.908;2022-12-18T01:41:44;-2.60;99.90
23685;DHT22;12020;51.384;6.908;2022-12-18T01:47:32;-2.70;99.90
23685;DHT22;12020;51.384;6.908;2022-12-18T01:50:13;-2.60;99.90
23685;DHT22;12020;51.384;6.908;2022-12-18T01:52:54;-2.60;99.90
23685;DHT22;12020;51.384;6.908;2022-12-18T01:55:25;-2.60;99.90
23685;DHT22;12020;51.384;6.908;2022-12-18T01:57:54;-2.50;99.90
23685;DHT22;12020;51.384;6.908;2022-12-18T02:00:22;-2.50;99.90
23685;DHT22;12020;51.384;6.908;2022-12-18T02:02:48;-2.40;99.90
23685;DHT22;12020;51.384;6.908;2022-12-18T02:18:42;-2.50;99.90
23685;DHT22;12020;51.384;6.908;2022-12-18T02:26:46;-2.50;99.90
23685;DHT22;12020;51.384;6.908;2022-12-18T02:29:22;-2.50;99.90
23685;DHT22;12020;51.384;6.908;2022-12-18T02:31:52;-2.50;99.90
23685;DHT22;12020;51.384;6.908;2022-12-18T02:34:25;-2.50;99.90
23685;DHT22;12020;51.384;6.908;2022-12-18T02:36:55;-2.50;99.90
23685;DHT22;12020;51.384;6.908;2022-12-18T02:39:25;-2.50;99.90
23685;DHT22;12020;51.384;6.908;2022-12-18T02:41:53;-2.50;99.90
23685;DHT22;12020;51.384;6.908;2022-12-18T02:44:20;-2.50;99.90
23685;DHT22;12020;51.384;6.908;2022-12-18T02:46:49;-2.50;99.90
23685;DHT22;12020;51.384;6.908;2022-12-18T02:49:53;-2.40;99.90
23685;DHT22;12020;51.384;6.908;2022-12-18T02:52:42;-2.40;99.90
23685;DHT22;12020;51.384;6.908;2022-12-18T03:03:46;-2.20;99.90
23685;DHT22;12020;51.384;6.908;2022-12-18T03:06:23;-2.20;99.90
23685;DHT22;12020;51.384;6.908;2022-12-18T03:08:54;-2.10;99.90
23685;DHT22;12020;51.384;6.908;2022-12-18T03:11:38;-2.10;99.90
23685;DHT22;12020;51.384;6.908;2022-12-18T03:14:25;-2.10;99.90
23685;DHT22;12020;51.384;6.908;2022-12-18T03:16:54;-2.10;99.90
23685;DHT22;12020;51.384;6.908;2022-12-18T03:19:27;-2.20;99.90
23685;DHT22;12020;51.384;6.908;2022-12-18T03:21:56;-2.20;99.90
23685;DHT22;12020;51.384;6.908;2022-12-18T03:24:25;-2.10;99.90
23685;DHT22;12020;51.384;6.908;2022-12-18T03:26:54;-2.20;99.90
23685;DHT22;12020;51.384;6.908;2022-12-18T03:29:29;-2.20;99.90
23685;DHT22;12020;51.384;6.908;2022-12-18T03:32:04;-2.20;99.90
23685;DHT22;12020;51.384;6.908;2022-12-18T03:34:34;-2.20;99.90
23685;DHT22;12020;51.384;6.908;2022-12-18T03:37:05;-2.30;99.90
23685;DHT22;12020;51.384;6.908;2022-12-18T03:39:38;-2.30;99.90
23685;DHT22;12020;51.384;6.908;2022-12-18T03:44:53;-2.30;99.90
23685;DHT22;12020;51.384;6.908;2022-12-18T03:47:44;-2.30;99.90
23685;DHT22;12020;51.384;6.908;2022-12-18T03:53:03;-2.40;99.90
23685;DHT22;12020;51.384;6.908;2022-12-18T03:55:33;-2.40;99.90
23685;DHT22;12020;51.384;6.908;2022-12-18T03:58:02;-2.40;99.90
23685;DHT22;12020;51.384;6.908;2022-12-18T04:00:29;-2.40;99.90
23685;DHT22;12020;51.384;6.908;2022-12-18T04:03:00;-2.40;99.90
23685;DHT22;12020;51.384;6.908;2022-12-18T04:05:28;-2.50;99.90
23685;DHT22;12020;51.384;6.908;2022-12-18T04:07:57;-2.50;99.90
23685;DHT22;12020;51.384;6.908;2022-12-18T04:10:24;-2.50;99.90
23685;DHT22;12020;51.384;6.908;2022-12-18T04:12:56;-2.60;99.90
23685;DHT22;12020;51.384;6.908;2022-12-18T04:15:24;-2.60;99.90
23685;DHT22;12020;51.384;6.908;2022-12-18T04:17:51;-2.60;99.90
23685;DHT22;12020;51.384;6.908;2022-12-18T04:20:17;-2.60;99.90
23685;DHT22;12020;51.384;6.908;2022-12-18T04:22:46;-2.60;99.90
23685;DHT22;12020;51.384;6.908;2022-12-18T04:25:12;-2.60;99.90
23685;DHT22;12020;51.384;6.908;2022-12-18T04:27:38;-2.60;99.90
23685;DHT22;12020;51.384;6.908;2022-12-18T04:30:15;-2.60;99.90
23685;DHT22;12020;51.384;6.908;2022-12-18T04:32:42;-2.50;99.90
23685;DHT22;12020;51.384;6.908;2022-12-18T04:35:09;-2.50;99.90
23685;DHT22;12020;51.384;6.908;2022-12-18T04:37:45;-2.60;99.90
23685;DHT22;12020;51.384;6.908;2022-12-18T04:40:13;-2.60;99.90
23685;DHT22;12020;51.384;6.908;2022-12-18T04:42:39;-2.60;99.90
23685;DHT22;12020;51.384;6.908;2022-12-18T04:45:09;-2.70;99.90
23685;DHT22;12020;51.384;6.908;2022-12-18T04:47:36;-2.70;99.90
23685;DHT22;12020;51.384;6.908;2022-12-18T04:50:09;-2.70;99.90
23685;DHT22;12020;51.384;6.908;2022-12-18T04:52:37;-2.70;99.90
23685;DHT22;12020;51.384;6.908;2022-12-18T04:55:04;-2.70;99.90
23685;DHT22;12020;51.384;6.908;2022-12-18T04:57:30;-2.70;99.90
23685;DHT22;12020;51.384;6.908;2022-12-18T04:59:59;-2.70;99.90
23685;DHT22;12020;51.384;6.908;2022-12-18T05:02:31;-2.70;99.90
23685;DHT22;12020;51.384;6.908;2022-12-18T05:04:59;-2.70;99.90
23685;DHT22;12020;51.384;6.908;2022-12-18T05:07:25;-2.70;99.90
23685;DHT22;12020;51.384;6.908;2022-12-18T05:09:50;-2.80;99.90
23685;DHT22;12020;51.384;6.908;2022-12-18T05:12:17;-2.80;99.90
23685;DHT22;12020;51.384;6.908;2022-12-18T05:14:48;-2.80;99.90
23685;DHT22;12020;51.384;6.908;2022-12-18T05:17:17;-2.80;99.90
23685;DHT22;12020;51.384;6.908;2022-12-18T05:19:43;-2.80;99.90
23685;DHT22;12020;51.384;6.908;2022-12-18T05:22:10;-2.80;99.90
23685;DHT22;12020;51.384;6.908;2022-12-18T05:24:45;-2.80;99.90
23685;DHT22;12020;51.384;6.908;2022-12-18T05:27:11;-2.80;99.90
23685;DHT22;12020;51.384;6.908;2022-12-18T05:29:37;-2.80;99.90
23685;DHT22;12020;51.384;6.908;2022-12-18T05:32:04;-2.80;99.90
23685;DHT22;12020;51.384;6.908;2022-12-18T05:34:33;-2.80;99.90
23685;DHT22;12020;51.384;6.908;2022-12-18T05:37:03;-2.80;99.90
23685;DHT22;12020;51.384;6.908;2022-12-18T05:39:31;-2.90;99.90
23685;DHT22;12020;51.384;6.908;2022-12-18T05:42:00;-2.90;99.90
23685;DHT22;12020;51.384;6.908;2022-12-18T05:44:29;-2.90;99.90
23685;DHT22;12020;51.384;6.908;2022-12-18T05:46:55;-2.90;99.90
23685;DHT22;12020;51.384;6.908;2022-12-18T05:49:21;-2.90;99.90
23685;DHT22;12020;51.384;6.908;2022-12-18T05:52:02;-2.90;99.90
23685;DHT22;12020;51.384;6.908;2022-12-18T05:54:32;-2.90;99.90
23685;DHT22;12020;51.384;6.908;2022-12-18T05:57:00;-3.00;99.90
23685;DHT22;12020;51.384;6.908;2022-12-18T05:59:29;-3.00;99.90
23685;DHT22;12020;51.384;6.908;2022-12-18T06:01:56;-3.00;99.90
23685;DHT22;12020;51.384;6.908;2022-12-18T06:04:23;-3.00;99.90
23685;DHT22;12020;51.384;6.908;2022-12-18T06:06:52;-3.00;99.90
23685;DHT22;12020;51.384;6.908;2022-12-18T06:09:18;-3.00;99.90
23685;DHT22;12020;51.384;6.908;2022-12-18T06:11:52;-3.00;99.90
23685;DHT22;12020;51.384;6.908;2022-12-18T06:14:19;-3.00;99.90
23685;DHT22;12020;51.384;6.908;2022-12-18T06:16:44;-3.00;99.90
23685;DHT22;12020;51.384;6.908;2022-12-18T06:19:14;-3.00;99.90
23685;DHT22;12020;51.384;6.908;2022-12-18T06:21:43;-3.00;99.90
23685;DHT22;12020;51.384;6.908;2022-12-18T06:24:10;-3.00;99.90
23685;DHT22;12020;51.384;6.908;2022-12-18T06:26:38;-3.00;99.90
23685;DHT22;12020;51.384;6.908;2022-12-18T06:29:05;-3.00;99.90
23685;DHT22;12020;51.384;6.908;2022-12-18T06:31:31;-3.00;99.90
23685;DHT22;12020;51.384;6.908;2022-12-18T06:33:59;-3.00;99.90
23685;DHT22;12020;51.384;6.908;2022-12-18T06:36:25;-3.00;99.90
23685;DHT22;12020;51.384;6.908;2022-12-18T06:38:51;-3.10;99.90
23685;DHT22;12020;51.384;6.908;2022-12-18T06:41:21;-3.10;99.90
23685;DHT22;12020;51.384;6.908;2022-12-18T06:43:47;-3.10;99.90
23685;DHT22;12020;51.384;6.908;2022-12-18T06:46:13;-3.10;99.90
23685;DHT22;12020;51.384;6.908;2022-12-18T06:48:39;-3.10;99.90
23685;DHT22;12020;51.384;6.908;2022-12-18T06:51:06;-3.10;99.90
23685;DHT22;12020;51.384;6.908;2022-12-18T06:53:32;-3.10;99.90
23685;DHT22;12020;51.384;6.908;2022-12-18T06:56:07;-3.10;99.90
23685;DHT22;12020;51.384;6.908;2022-12-18T06:58:39;-3.20;99.90
23685;DHT22;12020;51.384;6.908;2022-12-18T07:01:09;-3.20;99.90
23685;DHT22;12020;51.384;6.908;2022-12-18T07:03:43;-3.20;99.90
23685;DHT22;12020;51.384;6.908;2022-12-18T07:06:19;-3.20;99.90
23685;DHT22;12020;51.384;6.908;2022-12-18T07:08:47;-3.30;99.90
23685;DHT22;12020;51.384;6.908;2022-12-18T07:11:18;-3.30;99.90
23685;DHT22;12020;51.384;6.908;2022-12-18T07:13:52;-3.30;99.90
23685;DHT22;12020;51.384;6.908;2022-12-18T07:16:20;-3.40;99.90
23685;DHT22;12020;51.384;6.908;2022-12-18T07:18:48;-3.40;99.90
23685;DHT22;12020;51.384;6.908;2022-12-18T07:21:22;-3.30;99.90
23685;DHT22;12020;51.384;6.908;2022-12-18T07:23:49;-3.40;99.90
23685;DHT22;12020;51.384;6.908;2022-12-18T07:26:18;-3.40;99.90
23685;DHT22;12020;51.384;6.908;2022-12-18T07:28:45;-3.30;99.90
23685;DHT22;12020;51.384;6.908;2022-12-18T07:31:16;-3.40;99.90
23685;DHT22;12020;51.384;6.908;2022-12-18T07:33:45;-3.30;99.90
23685;DHT22;12020;51.384;6.908;2022-12-18T07:36:13;-3.30;99.90
23685;DHT22;12020;51.384;6.908;2022-12-18T07:38:40;-3.20;99.90
23685;DHT22;12020;51.384;6.908;2022-12-18T07:41:11;-3.20;99.90
23685;DHT22;12020;51.384;6.908;2022-12-18T07:43:39;-3.10;99.90
23685;DHT22;12020;51.384;6.908;2022-12-18T07:46:08;-3.00;99.90
23685;DHT22;12020;51.384;6.908;2022-12-18T07:48:35;-2.90;99.90
23685;DHT22;12020;51.384;6.908;2022-12-18T07:51:05;-2.80;99.90
23685;DHT22;12020;51.384;6.908;2022-12-18T07:53:36;-2.70;99.90
23685;DHT22;12020;51.384;6.908;2022-12-18T07:56:06;-2.60;99.90
23685;DHT22;12020;51.384;6.908;2022-12-18T07:58:34;-2.60;99.90
23685;DHT22;12020;51.384;6.908;2022-12-18T08:01:08;-2.50;99.90
23685;DHT22;12020;51.384;6.908;2022-12-18T08:03:38;-2.40;99.90
23685;DHT22;12020;51.384;6.908;2022-12-18T08:06:07;-2.30;99.90
23685;DHT22;12020;51.384;6.908;2022-12-18T08:08:36;-2.20;99.90
23685;DHT22;12020;51.384;6.908;2022-12-18T08:11:05;-2.10;99.90
23685;DHT22;12020;51.384;6.908;2022-12-18T08:13:33;-2.10;99.90
23685;DHT22;12020;51.384;6.908;2022-12-18T08:16:02;-2.00;99.90
23685;DHT22;12020;51.384;6.908;2022-12-18T08:18:28;-1.90;99.90
23685;DHT22;12020;51.384;6.908;2022-12-18T08:20:57;-1.80;99.90
23685;DHT22;12020;51.384;6.908;2022-12-18T08:23:28;-1.90;99.90
23685;DHT22;12020;51.384;6.908;2022-12-18T08:25:54;-1.80;99.90
23685;DHT22;12020;51.384;6.908;2022-12-18T08:28:22;-1.80;99.90
23685;DHT22;12020;51.384;6.908;2022-12-18T08:30:55;-1.70;99.90
23685;DHT22;12020;51.384;6.908;2022-12-18T08:33:21;-1.70;99.90
23685;DHT22;12020;51.384;6.908;2022-12-18T08:35:48;-1.70;99.90
23685;DHT22;12020;51.384;6.908;2022-12-18T08:38:19;-1.60;99.90
23685;DHT22;12020;51.384;6.908;2022-12-18T08:41:12;-1.50;99.90
23685;DHT22;12020;51.384;6.908;2022-12-18T08:43:42;-1.40;99.90
23685;DHT22;12020;51.384;6.908;2022-12-18T08:46:35;-1.40;99.90
23685;DHT22;12020;51.384;6.908;2022-12-18T08:49:03;-1.30;99.90
23685;DHT22;12020;51.384;6.908;2022-12-18T08:51:31;-1.10;99.90
23685;DHT22;12020;51.384;6.908;2022-12-18T08:54:00;-1.00;99.90
23685;DHT22;12020;51.384;6.908;2022-12-18T08:56:26;-0.90;99.90
23685;DHT22;12020;51.384;6.908;2022-12-18T08:58:54;-0.80;99.90
23685;DHT22;12020;51.384;6.908;2022-12-18T09:01:21;-0.70;99.90
23685;DHT22;12020;51.384;6.908;2022-12-18T09:03:50;-0.50;99.90
23685;DHT22;12020;51.384;6.908;2022-12-18T09:06:17;-0.40;99.90
23685;DHT22;12020;51.384;6.908;2022-12-18T09:08:45;-0.30;99.90
23685;DHT22;12020;51.384;6.908;2022-12-18T09:11:25;-0.10;99.90
23685;DHT22;12020;51.384;6.908;2022-12-18T09:13:58;0.00;99.90
23685;DHT22;12020;51.384;6.908;2022-12-18T09:16:27;0.10;99.90
23685;DHT22;12020;51.384;6.908;2022-12-18T09:18:58;0.20;99.90
23685;DHT22;12020;51.384;6.908;2022-12-18T09:21:28;0.40;99.90
23685;DHT22;12020;51.384;6.908;2022-12-18T09:23:56;0.40;99.90
23685;DHT22;12020;51.384;6.908;2022-12-18T09:26:23;0.50;99.90
23685;DHT22;12020;51.384;6.908;2022-12-18T09:28:50;0.60;99.90
23685;DHT22;12020;51.384;6.908;2022-12-18T09:31:18;0.70;99.90
23685;DHT22;12020;51.384;6.908;2022-12-18T09:33:44;0.80;99.90
23685;DHT22;12020;51.384;6.908;2022-12-18T09:36:19;0.90;99.90
23685;DHT22;12020;51.384;6.908;2022-12-18T09:38:47;1.10;99.90
23685;DHT22;12020;51.384;6.908;2022-12-18T09:41:50;1.20;99.90
23685;DHT22;12020;51.384;6.908;2022-12-18T09:49:28;1.40;99.90
23685;DHT22;12020;51.384;6.908;2022-12-18T09:52:04;1.50;99.90
23685;DHT22;12020;51.384;6.908;2022-12-18T09:54:38;1.60;99.90
23685;DHT22;12020;51.384;6.908;2022-12-18T09:57:05;1.60;99.90
23685;DHT22;12020;51.384;6.908;2022-12-18T09:59:36;1.60;99.90
23685;DHT22;12020;51.384;6.908;2022-12-18T10:02:21;1.70;99.90
23685;DHT22;12020;51.384;6.908;2022-12-18T10:05:15;1.70;99.90
23685;DHT22;12020;51.384;6.908;2022-12-18T10:10:50;1.70;99.90
23685;DHT22;12020;51.384;6.908;2022-12-18T10:16:36;1.70;99.90
23685;DHT22;12020;51.384;6.908;2022-12-18T10:19:36;1.70;99.90
23685;DHT22;12020;51.384;6.908;2022-12-18T10:25:02;1.80;99.90
23685;DHT22;12020;51.384;6.908;2022-12-18T10:27:34;1.80;99.90
23685;DHT22;12020;51.384;6.908;2022-12-18T10:30:12;1.80;99.90
23685;DHT22;12020;51.384;6.908;2022-12-18T10:32:39;1.80;99.90
23685;DHT22;12020;51.384;6.908;2022-12-18T10:35:19;1.90;99.90
23685;DHT22;12020;51.384;6.908;2022-12-18T10:41:04;1.90;99.90
23685;DHT22;12020;51.384;6.908;2022-12-18T10:43:40;1.90;99.90
23685;DHT22;12020;51.384;6.908;2022-12-18T10:46:15;1.90;99.90
23685;DHT22;12020;51.384;6.908;2022-12-18T10:48:56;2.00;99.90
23685;DHT22;12020;51.384;6.908;2022-12-18T10:54:00;2.00;99.90
23685;DHT22;12020;51.384;6.908;2022-12-18T10:56:29;2.10;99.90
23685;DHT22;12020;51.384;6.908;2022-12-18T10:59:08;2.10;99.90
23685;DHT22;12020;51.384;6.908;2022-12-18T11:01:57;2.00;99.90
23685;DHT22;12020;51.384;6.908;2022-12-18T11:04:30;2.10;99.90
23685;DHT22;12020;51.384;6.908;2022-12-18T11:07:08;2.10;99.90
23685;DHT22;12020;51.384;6.908;2022-12-18T11:09:36;2.10;99.90
23685;DHT22;12020;51.384;6.908;2022-12-18T11:12:27;2.20;99.90
23685;DHT22;12020;51.384;6.908;2022-12-18T11:14:58;2.20;99.90
23685;DHT22;12020;51.384;6.908;2022-12-18T11:17:36;2.20;99.90
23685;DHT22;12020;51.384;6.908;2022-12-18T11:20:06;2.20;99.90
23685;DHT22;12020;51.384;6.908;2022-12-18T11:22:36;2.20;99.90
23685;DHT22;12020;51.384;6.908;2022-12-18T11:25:07;2.20;99.90
23685;DHT22;12020;51.384;6.908;2022-12-18T11:27:48;2.30;99.90
23685;DHT22;12020;51.384;6.908;2022-12-18T11:30:23;2.30;99.90
23685;DHT22;12020;51.384;6.908;2022-12-18T11:32:56;2.30;99.90
23685;DHT22;12020;51.384;6.908;2022-12-18T11:38:26;2.30;99.90
23685;DHT22;12020;51.384;6.908;2022-12-18T11:41:04;2.40;99.90
23685;DHT22;12020;51.384;6.908;2022-12-18T11:43:41;2.40;99.90
23685;DHT22;12020;51.384;6.908;2022-12-18T11:46:17;2.40;99.90
23685;DHT22;12020;51.384;6.908;2022-12-18T11:51:58;2.40;99.90
23685;DHT22;12020;51.384;6.908;2022-12-18T11:54:26;2.60;99.90
23685;DHT22;12020;51.384;6.908;2022-12-18T12:05:35;2.60;99.90
23685;DHT22;12020;51.384;6.908;2022-12-18T12:08:34;2.60;99.90
23685;DHT22;12020;51.384;6.908;2022-12-18T12:11:20;2.60;99.90
23685;DHT22;12020;51.384;6.908;2022-12-18T12:16:37;2.50;99.90
23685;DHT22;12020;51.384;6.908;2022-12-18T12:22:22;2.40;99.90
23685;DHT22;12020;51.384;6.908;2022-12-18T12:27:48;2.40;99.90
23685;DHT22;12020;51.384;6.908;2022-12-18T12:30:46;2.40;99.90
23685;DHT22;12020;51.384;6.908;2022-12-18T12:33:25;2.40;99.90
23685;DHT22;12020;51.384;6.908;2022-12-18T12:38:35;2.40;99.90
23685;DHT22;12020;51.384;6.908;2022-12-18T12:41:09;2.40;99.90
23685;DHT22;12020;51.384;6.908;2022-12-18T12:43:58;2.40;99.90
23685;DHT22;12020;51.384;6.908;2022-12-18T12:46:25;2.40;99.90
23685;DHT22;12020;51.384;6.908;2022-12-18T12:51:30;2.40;99.90
23685;DHT22;12020;51.384;6.908;2022-12-18T12:53:58;2.30;99.90
23685;DHT22;12020;51.384;6.908;2022-12-18T13:07:51;2.30;99.90
23685;DHT22;12020;51.384;6.908;2022-12-18T13:13:13;2.30;99.90
23685;DHT22;12020;51.384;6.908;2022-12-18T13:15:47;2.30;99.90
23685;DHT22;12020;51.384;6.908;2022-12-18T13:18:22;2.20;99.90
23685;DHT22;12020;51.384;6.908;2022-12-18T13:20:51;2.20;99.90
23685;DHT22;12020;51.384;6.908;2022-12-18T13:23:35;2.20;99.90
23685;DHT22;12020;51.384;6.908;2022-12-18T13:31:00;2.20;99.90
23685;DHT22;12020;51.384;6.908;2022-12-18T13:36:25;2.20;99.90
23685;DHT22;12020;51.384;6.908;2022-12-18T13:39:31;2.10;99.90
23685;DHT22;12020;51.384;6.908;2022-12-18T13:45:35;2.10;99.90
23685;DHT22;12020;51.384;6.908;2022-12-18T13:48:03;2.00;99.90
23685;DHT22;12020;51.384;6.908;2022-12-18T13:50:29;2.00;99.90
23685;DHT22;12020;51.384;6.908;2022-12-18T13:52:55;2.00;99.90
23685;DHT22;12020;51.384;6.908;2022-12-18T13:55:22;1.90;99.90
23685;DHT22;12020;51.384;6.908;2022-12-18T13:57:48;2.00;99.90
23685;DHT22;12020;51.384;6.908;2022-12-18T14:00:28;2.00;99.90
23685;DHT22;12020;51.384;6.908;2022-12-18T14:02:56;1.90;99.90
23685;DHT22;12020;51.384;6.908;2022-12-18T14:05:30;1.90;99.90
23685;DHT22;12020;51.384;6.908;2022-12-18T14:08:05;1.90;99.90
23685;DHT22;12020;51.384;6.908;2022-12-18T14:10:32;1.90;99.90
23685;DHT22;12020;51.384;6.908;2022-12-18T14:13:05;1.80;99.90
23685;DHT22;12020;51.384;6.908;2022-12-18T14:15:42;1.90;99.90
23685;DHT22;12020;51.384;6.908;2022-12-18T14:18:25;1.90;99.90
23685;DHT22;12020;51.384;6.908;2022-12-18T14:20:56;1.80;99.90
23685;DHT22;12020;51.384;6.908;2022-12-18T14:23:32;1.80;99.90
23685;DHT22;12020;51.384;6.908;2022-12-18T14:25:58;1.80;99.90
23685;DHT22;12020;51.384;6.908;2022-12-18T14:28:25;1.80;99.90
23685;DHT22;12020;51.384;6.908;2022-12-18T14:30:52;1.80;99.90
23685;DHT22;12020;51.384;6.908;2022-12-18T14:33:21;1.90;99.90
23685;DHT22;12020;51.384;6.908;2022-12-18T14:36:05;1.90;99.90
23685;DHT22;12020;51.384;6.908;2022-12-18T14:38:39;1.90;99.90
23685;DHT22;12020;51.384;6.908;2022-12-18T14:41:13;1.90;99.90
23685;DHT22;12020;51.384;6.908;2022-12-18T14:43:42;1.90;99.90
23685;DHT22;12020;51.384;6.908;2022-12-18T14:46:28;1.90;99.90
23685;DHT22;12020;51.384;6.908;2022-12-18T14:48:55;1.80;99.90
23685;DHT22;12020;51.384;6.908;2022-12-18T14:51:23;1.90;99.90
23685;DHT22;12020;51.384;6.908;2022-12-18T14:56:31;1.90;99.90
23685;DHT22;12020;51.384;6.908;2022-12-18T14:59:04;1.90;99.90
23685;DHT22;12020;51.384;6.908;2022-12-18T15:01:36;1.80;99.90
23685;DHT22;12020;51.384;6.908;2022-12-18T15:04:04;1.80;99.90
23685;DHT22;12020;51.384;6.908;2022-12-18T15:09:25;1.80;99.90
23685;DHT22;12020;51.384;6.908;2022-12-18T15:11:58;1.90;99.90
23685;DHT22;12020;51.384;6.908;2022-12-18T15:14:41;1.90;99.90
23685;DHT22;12020;51.384;6.908;2022-12-18T15:17:23;1.80;99.90
23685;DHT22;12020;51.384;6.908;2022-12-18T15:19:58;1.90;99.90
23685;DHT22;12020;51.384;6.908;2022-12-18T15:22:28;1.80;99.90
23685;DHT22;12020;51.384;6.908;2022-12-18T15:24:56;1.80;99.90
23685;DHT22;12020;51.384;6.908;2022-12-18T15:27:37;1.80;99.90
23685;DHT22;12020;51.384;6.908;2022-12-18T15:30:18;1.70;99.90
23685;DHT22;12020;51.384;6.908;2022-12-18T15:32:45;1.70;99.90
23685;DHT22;12020;51.384;6.908;2022-12-18T15:35:16;1.80;99.90
23685;DHT22;12020;51.384;6.908;2022-12-18T15:37:43;1.70;99.90
23685;DHT22;12020;51.384;6.908;2022-12-18T15:40:21;1.80;99.90
23685;DHT22;12020;51.384;6.908;2022-12-18T15:42:49;1.70;99.90
23685;DHT22;12020;51.384;6.908;2022-12-18T15:45:35;1.70;99.90
23685;DHT22;12020;51.384;6.908;2022-12-18T15:48:02;1.60;99.90
23685;DHT22;12020;51.384;6.908;2022-12-18T15:50:28;1.60;99.90
23685;DHT22;12020;51.384;6.908;2022-12-18T15:52:54;1.50;99.90
23685;DHT22;12020;51.384;6.908;2022-12-18T15:55:23;1.50;99.90
23685;DHT22;12020;51.384;6.908;2022-12-18T15:58:09;1.50;99.90
23685;DHT22;12020;51.384;6.908;2022-12-18T16:00:38;1.50;99.90
23685;DHT22;12020;51.384;6.908;2022-12-18T16:03:04;1.50;99.90
23685;DHT22;12020;51.384;6.908;2022-12-18T16:05:30;1.50;99.90
23685;DHT22;12020;51.384;6.908;2022-12-18T16:07:57;1.40;99.90
23685;DHT22;12020;51.384;6.908;2022-12-18T16:10:25;1.40;99.90
23685;DHT22;12020;51.384;6.908;2022-12-18T16:12:53;1.40;99.90
23685;DHT22;12020;51.384;6.908;2022-12-18T16:15:20;1.40;99.90
23685;DHT22;12020;51.384;6.908;2022-12-18T16:17:46;1.40;99.90
23685;DHT22;12020;51.384;6.908;2022-12-18T16:20:17;1.30;99.90
23685;DHT22;12020;51.384;6.908;2022-12-18T16:22:45;1.40;99.90
23685;DHT22;12020;51.384;6.908;2022-12-18T16:27:47;1.40;99.90
23685;DHT22;12020;51.384;6.908;2022-12-18T16:30:19;1.40;99.90
23685;DHT22;12020;51.384;6.908;2022-12-18T16:32:46;1.30;99.90
23685;DHT22;12020;51.384;6.908;2022-12-18T16:35:13;1.40;99.90
23685;DHT22;12020;51.384;6.908;2022-12-18T16:37:40;1.30;99.90
23685;DHT22;12020;51.384;6.908;2022-12-18T16:40:08;1.30;99.90
23685;DHT22;12020;51.384;6.908;2022-12-18T16:42:42;1.30;99.90
23685;DHT22;12020;51.384;6.908;2022-12-18T16:45:14;1.30;99.90
23685;DHT22;12020;51.384;6.908;2022-12-18T16:47:41;1.30;99.90
23685;DHT22;12020;51.384;6.908;2022-12-18T16:50:07;1.30;99.90
23685;DHT22;12020;51.384;6.908;2022-12-18T16:52:34;1.20;99.90
23685;DHT22;12020;51.384;6.908;2022-12-18T16:54:59;1.20;99.90
23685;DHT22;12020;51.384;6.908;2022-12-18T16:57:26;1.30;99.90
23685;DHT22;12020;51.384;6.908;2022-12-18T16:59:52;1.20;99.90
23685;DHT22;12020;51.384;6.908;2022-12-18T17:02:20;1.20;99.90
23685;DHT22;12020;51.384;6.908;2022-12-18T17:04:46;1.20;99.90
23685;DHT22;12020;51.384;6.908;2022-12-18T17:07:13;1.20;99.90
23685;DHT22;12020;51.384;6.908;2022-12-18T17:09:39;1.20;99.90
23685;DHT22;12020;51.384;6.908;2022-12-18T17:12:05;1.10;99.90
23685;DHT22;12020;51.384;6.908;2022-12-18T17:14:32;1.20;99.90
23685;DHT22;12020;51.384;6.908;2022-12-18T17:16:58;1.10;99.90
23685;DHT22;12020;51.384;6.908;2022-12-18T17:19:25;1.20;99.90
23685;DHT22;12020;51.384;6.908;2022-12-18T17:21:52;1.10;99.90
23685;DHT22;12020;51.384;6.908;2022-12-18T17:24:18;1.10;99.90
23685;DHT22;12020;51.384;6.908;2022-12-18T17:26:44;1.10;99.90
23685;DHT22;12020;51.384;6.908;2022-12-18T17:29:15;1.10;99.90
23685;DHT22;12020;51.384;6.908;2022-12-18T17:31:42;1.00;99.90
23685;DHT22;12020;51.384;6.908;2022-12-18T17:34:09;1.00;99.90
23685;DHT22;12020;51.384;6.908;2022-12-18T17:36:36;1.00;99.90
23685;DHT22;12020;51.384;6.908;2022-12-18T17:39:03;1.00;99.90
23685;DHT22;12020;51.384;6.908;2022-12-18T17:41:30;1.00;99.90
23685;DHT22;12020;51.384;6.908;2022-12-18T17:44:02;1.00;99.90
23685;DHT22;12020;51.384;6.908;2022-12-18T17:46:30;1.10;99.90
23685;DHT22;12020;51.384;6.908;2022-12-18T17:48:58;0.90;99.90
23685;DHT22;12020;51.384;6.908;2022-12-18T17:51:24;0.90;99.90
23685;DHT22;12020;51.384;6.908;2022-12-18T17:53:51;1.00;99.90
23685;DHT22;12020;51.384;6.908;2022-12-18T17:56:19;0.90;99.90
23685;DHT22;12020;51.384;6.908;2022-12-18T17:58:45;0.90;99.90
23685;DHT22;12020;51.384;6.908;2022-12-18T18:01:14;0.90;99.90